Date,TemperatureHighF,TemperatureAvgF,TemperatureLowF,DewpointHighF,DewpointAvgF,DewpointLowF,HumidityHigh,HumidityAvg,HumidityLow,PressureMaxIn,PressureMinIn,WindSpeedMaxMPH,WindSpeedAvgMPH,GustSpeedMaxMPH,PrecipitationSumIn
2014-1-1,48,33,24,29,24,17,86,70,46,30.36,30.08,12,1,12,0.00
2014-1-2,33,29,25,30,26,23,95,89,82,30.09,29.63,5,0,6,0.00
2014-1-3,26,17,8,24,6,1,94,63,43,30.48,29.67,31,7,31,0.00
2014-1-4,31,21,6,16,10,2,87,63,48,30.46,30.22,17,3,17,0.00
2014-1-5,41,25,13,40,22,10,98,87,64,30.24,29.61,16,0,17,0.33
2014-1-6,43,30,4,42,21,-10,98,71,47,30.10,29.44,25,7,27,0.15
2014-1-7,13,6,1,-2,-8,-13,61,52,44,30.45,30.09,23,4,24,0.00
2014-1-8,26,17,7,15,5,-4,74,58,44,30.59,30.45,7,0,8,0.00
2014-1-9,37,28,20,24,19,14,82,69,56,30.63,30.47,10,1,10,0.00
2014-1-10,39,35,32,36,31,22,97,87,67,30.51,30.08,8,0,10,0.15
2014-1-11,36,36,36,35,35,35,97,97,97,30.09,30.08,0,0,0,0.00
2014-1-13,52,44,25,41,35,24,94,71,58,30.07,29.80,16,2,16,0.00
2014-1-14,48,44,34,46,42,33,97,91,76,29.88,29.66,12,1,14,0.16
2014-1-15,45,36,31,40,33,28,98,87,62,29.96,29.85,15,2,15,0.01
2014-1-16,37,32,27,27,21,16,77,63,51,30.01,29.86,15,2,15,0.00
2014-1-17,46,37,26,32,27,20,83,67,52,29.92,29.80,11,1,14,0.00
2014-1-18,34,24,16,30,15,9,93,69,52,29.98,29.80,22,5,22,0.00
2014-1-19,43,31,17,29,20,11,81,66,53,29.93,29.70,19,1,20,0.00
2014-1-20,50,38,29,32,28,23,80,66,49,29.87,29.63,20,3,21,0.00
2014-1-21,37,25,12,30,21,6,100,86,72,29.92,29.75,18,4,19,0.00
2014-1-22,18,11,3,6,0,-4,78,60,45,30.09,29.92,19,4,19,0.00
2014-1-23,23,11,0,12,2,-4,88,67,49,30.46,30.08,16,2,19,0.00
2014-1-24,21,12,2,4,0,-6,70,56,43,30.52,30.00,19,2,19,0.00
2014-1-25,33,25,17,23,11,2,80,56,48,30.00,29.41,26,4,26,0.00
2014-1-26,32,24,13,15,10,3,70,54,46,29.88,29.66,20,3,23,0.00
2014-1-27,38,26,14,28,13,-1,78,59,44,30.20,29.59,28,4,31,0.00
2014-1-28,14,10,5,4,-4,-7,76,52,43,30.45,30.20,18,3,18,0.00
2014-1-29,23,14,7,5,-1,-8,81,53,37,30.35,30.22,16,2,16,0.00
2014-1-30,31,17,1,11,4,-5,80,56,39,30.45,30.13,12,1,13,0.00
2014-1-31,44,32,25,21,16,11,64,52,36,30.20,30.08,9,0,10,0.00
2014-2-1,48,38,26,28,23,17,83,57,41,30.24,29.95,13,1,14,0.00
2014-2-2,57,43,32,41,33,24,88,69,51,30.08,29.89,14,1,16,0.01
2014-2-3,40,34,30,37,33,28,97,95,89,30.32,30.02,13,1,14,0.76
2014-2-4,34,29,22,28,24,20,92,81,67,30.47,30.15,7,0,7,0.04
2014-2-5,40,32,28,32,27,20,97,85,65,30.16,29.76,24,4,29,1.05
2014-2-6,35,29,24,20,18,16,75,66,52,30.34,30.11,21,3,22,0.00
2014-2-7,38,30,23,22,19,15,82,65,51,30.33,30.24,13,1,13,0.04
2014-2-8,30,26,21,20,17,14,80,69,58,30.33,30.17,5,0,6,0.00
2014-2-9,31,27,20,27,23,15,95,85,68,30.18,29.95,9,0,10,0.00
2014-2-10,30,25,17,26,14,7,94,63,49,30.33,30.05,18,4,21,0.00
2014-2-11,29,19,10,14,10,5,88,67,50,30.48,30.32,11,1,11,0.00
2014-2-12,25,17,6,19,10,3,92,74,55,30.53,30.19,8,0,9,0.00
2014-2-13,27,21,18,26,20,17,96,94,92,30.19,29.65,9,3,10,0.00
2014-2-14,38,38,38,28,28,27,67,67,66,29.70,29.69,0,0,0,0.43
2014-2-15,38,33,25,32,26,12,96,79,56,29.96,29.59,27,5,27,0.06
2014-2-16,33,26,22,23,16,11,92,67,51,30.20,29.95,13,2,13,0.00
2014-2-17,33,25,14,22,12,7,86,59,39,30.46,30.16,19,2,22,0.00
2014-2-18,54,38,25,32,26,22,90,65,39,30.17,29.97,19,3,19,0.02
2014-2-19,57,41,31,43,32,23,93,70,42,30.12,29.67,26,2,26,0.23
2014-2-20,50,41,28,34,29,25,92,65,43,30.21,29.87,16,2,20,0.00
2014-2-21,54,48,44,50,35,26,94,63,44,29.94,29.66,15,2,18,0.32
2014-2-22,60,48,37,32,26,23,60,44,28,30.06,29.94,17,2,20,0.00
2014-2-23,56,42,31,38,31,25,92,66,46,30.00,29.86,17,2,19,0.02
2014-2-24,40,35,26,33,18,13,83,51,36,30.11,29.92,24,5,27,0.01
2014-2-25,35,28,25,22,16,12,72,61,50,30.10,29.98,12,1,14,0.00
2014-2-26,32,27,17,22,14,8,88,59,41,29.99,29.84,21,3,23,0.00
2014-2-27,33,22,13,13,9,1,80,58,36,30.17,29.69,26,5,28,0.00
2014-2-28,27,18,6,5,0,-4,68,47,31,30.43,30.17,12,1,13,0.00
2014-3-1,41,30,19,24,15,5,63,53,43,30.35,30.13,14,2,14,0.00
2014-3-2,41,36,31,36,30,23,96,78,60,30.13,29.99,13,1,13,0.23
2014-3-3,30,17,6,28,12,2,95,81,59,30.36,30.00,19,4,23,0.00
2014-3-4,30,16,1,11,6,-2,89,66,34,30.44,30.24,9,0,9,0.05
2014-3-5,44,28,13,21,14,6,87,58,38,30.42,30.19,11,0,11,0.11
2014-3-6,34,27,20,20,16,11,70,62,52,30.57,30.35,9,2,11,0.00
2014-3-7,43,33,28,32,25,18,87,74,65,30.36,29.94,10,1,10,0.00
2014-3-8,62,42,24,42,32,22,95,71,42,29.97,29.85,14,1,14,0.00
2014-3-9,47,41,35,37,25,19,77,56,36,30.11,29.91,19,5,22,0.00
2014-3-10,68,51,35,40,32,22,71,50,34,29.98,29.59,16,1,16,0.00
2014-3-11,71,59,50,48,42,35,69,52,41,29.67,29.57,13,1,14,0.00
2014-3-12,69,48,29,57,40,18,92,73,53,29.59,28.98,30,4,39,0.22
2014-3-13,30,25,16,18,8,1,65,49,39,30.16,29.51,35,9,35,0.00
2014-3-14,59,42,23,31,21,9,64,44,32,30.18,29.81,20,5,21,0.00
2014-3-15,62,54,46,40,31,27,66,42,28,30.03,29.75,22,5,24,0.00
2014-3-16,46,35,26,30,25,15,92,67,37,30.17,30.03,16,3,16,0.00
2014-3-17,34,27,22,25,23,20,94,84,66,30.08,29.99,8,1,9,0.07
2014-3-18,44,35,29,28,24,18,84,65,49,30.21,30.07,7,0,8,0.14
2014-3-19,42,38,34,40,34,27,98,86,63,30.20,29.83,10,1,11,0.02
2014-3-20,54,46,36,41,33,27,98,64,39,29.98,29.80,25,5,26,0.01
2014-3-21,52,43,33,39,33,27,83,69,55,30.06,29.97,17,1,17,0.00
2014-3-22,68,53,40,43,36,32,85,57,31,30.02,29.78,23,4,24,0.00
2014-3-23,45,39,29,32,24,11,78,57,39,30.19,29.99,19,5,21,0.00
2014-3-24,39,29,18,15,11,8,67,47,32,30.31,30.11,23,3,23,0.00
2014-3-25,34,30,25,31,23,10,93,78,49,30.13,29.85,7,1,8,0.19
2014-3-26,33,28,22,26,15,9,95,62,40,30.31,29.89,28,7,29,0.01
2014-3-27,49,35,17,28,20,10,86,55,42,30.41,30.11,18,3,20,0.02
2014-3-28,65,54,45,54,43,26,92,70,44,30.11,29.91,22,5,22,0.12
2014-3-29,56,49,45,50,46,43,100,91,80,30.06,29.56,9,1,9,1.00
2014-3-30,45,41,34,45,38,33,99,90,69,29.85,29.55,25,8,25,1.01
2014-3-31,66,51,38,38,33,30,71,53,32,30.08,29.85,24,7,24,0.00
2014-4-1,67,50,33,44,36,29,91,60,40,30.15,29.90,11,1,11,0.00
2014-4-2,69,54,42,53,45,38,90,72,55,30.09,29.93,8,0,8,0.00
2014-4-3,62,56,50,50,47,41,92,73,47,30.08,29.89,10,0,11,0.03
2014-4-4,57,51,47,50,45,39,95,80,70,29.90,29.63,17,3,19,0.04
2014-4-5,53,47,41,46,35,29,97,64,48,30.16,29.70,20,5,23,0.00
2014-4-6,59,45,29,33,28,24,88,54,30,30.24,30.09,12,1,12,0.00
2014-4-7,48,42,39,42,36,27,98,80,46,30.12,29.55,14,1,14,0.37
2014-4-8,59,51,42,51,43,36,99,78,53,29.67,29.44,19,2,22,0.00
2014-4-9,42,40,38,37,37,36,93,88,84,29.69,29.66,2,0,2,0.00
2014-4-10,71,60,35,43,39,28,84,47,33,30.17,29.93,21,5,21,0.00
2014-4-11,79,62,52,55,47,39,96,62,36,30.02,29.89,21,2,22,0.06
2014-4-12,75,60,42,56,45,37,100,66,27,30.24,30.01,17,2,17,0.01
2014-4-13,83,70,55,61,56,50,87,62,43,30.06,29.88,19,5,21,0.00
2014-4-14,75,70,64,60,58,55,75,65,55,29.91,29.70,21,7,22,0.00
2014-4-15,69,53,34,64,48,20,97,83,57,30.06,29.47,28,8,30,0.77
2014-4-16,47,37,29,26,20,15,64,50,37,30.51,30.05,20,5,21,0.00
2014-4-17,57,44,32,38,30,20,74,57,43,30.63,30.48,16,2,16,0.00
2014-4-18,56,45,34,41,36,30,86,71,54,30.56,30.23,11,1,13,0.00
2014-4-19,68,54,39,46,38,31,90,60,33,30.30,30.20,15,1,15,0.00
2014-4-20,65,54,41,45,37,30,69,53,42,30.40,30.25,13,1,13,0.00
2014-4-21,71,55,36,42,36,32,89,53,27,30.25,29.82,9,1,11,0.00
2014-4-22,72,60,49,60,48,37,95,67,50,29.82,29.51,27,1,29,0.12
2014-4-23,54,49,44,42,37,33,72,64,56,29.99,29.68,28,8,28,0.00
2014-4-24,65,51,39,34,29,25,65,45,27,30.12,29.96,16,3,16,0.00
2014-4-25,67,54,45,53,42,29,95,67,44,29.98,29.67,17,2,17,0.65
2014-4-26,75,60,47,53,46,36,97,63,37,29.90,29.70,25,4,26,0.00
2014-4-27,66,54,41,43,38,33,80,56,40,30.07,29.89,15,2,15,0.00
2014-4-28,60,52,47,50,43,36,96,70,55,30.09,29.93,13,1,16,0.18
2014-4-29,49,48,46,48,46,44,100,95,91,30.18,30.00,21,2,21,0.57
2014-4-30,51,49,47,51,48,46,100,98,95,30.16,29.82,10,1,10,0.84
2014-5-1,75,61,51,62,53,44,100,78,48,29.84,29.69,14,2,14,0.04
2014-5-2,66,56,45,46,42,40,83,60,43,29.86,29.77,16,2,17,0.00
2014-5-3,71,57,45,49,45,40,90,66,41,29.85,29.69,13,1,17,0.00
2014-5-4,68,57,46,51,45,37,91,65,46,29.94,29.70,15,1,16,0.00
2014-5-5,64,52,38,46,39,32,91,64,42,30.05,29.86,11,1,11,0.01
2014-5-6,74,59,48,51,47,42,97,68,36,30.01,29.87,9,0,9,0.00
2014-5-7,62,55,49,55,46,35,96,73,48,30.26,30.01,10,1,11,0.48
2014-5-8,87,67,49,67,58,48,98,76,46,30.12,29.94,7,0,9,0.00
2014-5-9,78,70,61,67,64,60,96,82,66,30.06,29.86,12,1,12,0.00
2014-5-10,79,68,60,68,64,59,97,87,58,29.95,29.87,16,1,18,0.56
2014-5-11,82,67,54,62,56,52,100,72,39,30.11,29.92,10,0,10,0.01
2014-5-12,88,70,56,70,62,54,98,78,48,30.09,29.99,10,0,11,0.03
2014-5-13,89,73,64,72,67,63,99,82,54,30.12,29.99,14,1,20,0.34
2014-5-14,69,63,60,66,61,58,98,93,84,30.18,30.08,12,1,13,0.00
2014-5-15,79,69,64,70,66,63,99,91,71,30.10,29.82,21,2,21,0.98
2014-5-16,68,60,52,67,53,45,99,80,55,29.93,29.73,19,3,23,2.40
2014-5-17,65,55,43,50,43,39,96,66,41,30.16,29.93,17,2,17,0.00
2014-5-18,64,53,42,47,42,39,95,67,41,30.25,30.16,12,1,13,0.00
2014-5-19,73,57,39,49,43,37,95,65,35,30.30,30.13,14,0,14,0.00
2014-5-20,74,61,45,56,48,41,94,65,39,30.19,29.96,7,0,8,0.00
2014-5-21,73,66,56,65,59,53,94,79,68,29.98,29.83,7,0,7,0.00
2014-5-22,84,72,62,69,63,51,99,75,48,29.91,29.74,17,2,20,0.14
2014-5-23,74,63,52,59,51,46,90,65,46,30.02,29.87,18,4,21,0.00
2014-5-24,76,63,50,58,52,46,89,70,47,30.11,30.00,13,2,14,0.00
2014-5-25,81,66,50,60,54,49,98,69,39,30.16,30.05,14,0,14,0.00
2014-5-26,84,69,52,64,58,50,97,69,40,30.11,29.92,6,0,13,0.00
2014-5-27,86,72,63,73,66,59,98,82,63,29.96,29.79,15,1,15,0.22
2014-5-28,83,73,63,74,68,61,99,86,67,30.00,29.82,18,1,18,0.02
2014-5-29,63,57,56,61,56,54,98,95,92,30.14,29.99,12,1,13,0.14
2014-5-30,75,62,56,61,57,55,99,85,56,30.14,30.03,11,1,11,0.00
2014-5-31,78,66,51,60,53,48,99,68,35,30.20,30.08,14,1,14,0.00
2014-6-1,76,66,56,59,55,48,90,68,50,30.31,30.17,13,2,15,0.00
2014-6-2,82,70,57,67,60,52,88,71,58,30.22,29.99,11,1,13,0.00
2014-6-3,84,74,63,73,67,60,92,78,61,30.00,29.80,10,1,10,0.00
2014-6-4,83,74,65,67,65,61,97,75,52,29.85,29.63,9,1,10,0.03
2014-6-5,77,68,59,65,59,53,98,76,49,29.85,29.56,19,4,19,0.47
2014-6-6,78,66,54,58,54,48,90,66,47,29.96,29.83,13,2,15,0.00
2014-6-7,82,68,53,62,57,52,98,72,44,30.03,29.91,8,0,8,0.00
2014-6-8,82,70,58,70,64,56,100,82,61,29.93,29.75,18,2,19,0.65
2014-6-9,82,73,66,72,69,66,100,86,68,29.86,29.79,7,0,9,0.04
2014-6-10,84,75,68,73,70,68,100,87,61,29.90,29.82,7,0,8,0.03
2014-6-11,85,73,65,75,69,64,99,89,69,29.95,29.83,15,2,27,0.92
2014-6-12,76,71,67,74,70,66,99,95,89,29.92,29.78,12,1,12,0.41
2014-6-13,85,73,66,73,68,63,99,87,56,29.85,29.68,20,1,26,0.17
2014-6-14,73,66,58,65,57,53,97,75,56,30.08,29.84,18,3,19,0.00
2014-6-15,83,67,52,65,58,51,99,76,50,30.17,30.03,7,0,9,0.00
2014-6-16,89,73,59,73,65,58,99,80,54,30.12,29.99,10,0,10,0.00
2014-6-17,91,79,68,78,72,67,98,80,57,30.08,29.90,10,1,11,0.00
2014-6-18,91,81,71,78,74,68,93,79,61,29.99,29.90,14,1,15,0.00
2014-6-19,81,74,67,75,70,66,98,88,72,30.01,29.88,14,1,14,0.22
2014-6-20,82,72,61,66,62,53,99,74,48,30.05,29.89,9,0,11,0.00
2014-6-21,71,67,64,65,62,58,94,87,66,29.91,29.85,5,0,5,0.04
2014-6-22,79,70,62,68,64,60,97,82,62,29.96,29.86,7,0,8,0.00
2014-6-23,82,72,63,68,64,61,94,76,57,30.07,29.96,16,2,16,0.00
2014-6-24,85,75,67,74,68,61,85,77,68,30.07,29.92,13,2,17,0.00
2014-6-25,88,78,71,76,71,68,98,82,64,29.94,29.74,11,1,16,0.59
2014-6-26,85,76,69,71,68,66,99,79,56,29.95,29.82,15,2,19,0.01
2014-6-27,87,75,63,73,68,62,99,80,53,30.13,29.95,12,0,12,0.00
2014-6-28,84,75,65,68,64,58,94,70,48,30.23,30.12,10,1,11,0.00
2014-6-29,83,75,67,66,62,60,82,65,48,30.19,30.05,13,1,15,0.00
2014-6-30,87,78,70,75,69,63,84,73,65,30.06,29.86,11,1,11,0.00
2014-7-1,91,82,72,78,74,70,93,78,63,29.90,29.75,12,2,13,0.00
2014-7-2,92,78,70,79,74,69,99,89,60,29.89,29.78,18,0,24,0.42
2014-7-3,88,76,70,78,72,69,99,90,65,29.95,29.82,13,0,17,0.02
2014-7-4,76,71,62,71,59,51,98,68,48,30.16,29.95,19,5,21,0.00
2014-7-5,82,68,55,60,54,49,82,64,38,30.25,30.11,13,1,13,0.00
2014-7-6,87,72,59,68,62,55,91,73,46,30.11,29.90,10,0,12,0.00
2014-7-7,90,75,0,74,64,0,84,63,53,29.90,29.72,15,2,18,0.00
2014-7-8,90,78,69,76,70,67,96,78,59,29.80,29.63,20,2,27,0.31
2014-7-9,85,62,0,76,57,0,97,65,66,29.92,29.77,16,1,17,0.12
2014-7-10,86,78,69,72,69,62,99,74,54,30.09,29.91,9,0,12,0.00
2014-7-11,86,79,70,74,69,61,90,71,53,30.16,30.08,8,0,8,0.00
2014-7-12,87,82,74,76,72,63,89,72,64,30.15,30.03,14,1,15,0.00
2014-7-13,88,83,76,77,75,71,85,75,64,30.04,29.82,11,1,12,0.00
2014-7-15,82,62,0,76,57,0,99,64,72,29.75,29.67,9,0,9,0.00
2014-7-16,79,77,67,72,64,56,81,65,48,29.91,29.75,12,2,16,0.00
2014-7-17,79,76,66,64,59,47,82,55,46,30.10,29.91,10,1,11,0.00
2014-7-18,80,76,61,66,61,43,98,60,52,30.21,30.10,6,0,6,0.00
2014-7-19,79,76,70,66,64,57,85,68,58,30.17,30.08,8,0,8,0.00
2014-7-20,80,76,71,69,67,65,85,73,66,30.10,30.02,6,0,7,0.00
2014-7-21,83,79,73,74,71,64,89,77,73,30.13,30.05,9,1,10,0.00
2014-7-22,86,81,76,76,73,68,91,76,69,30.13,29.99,11,1,12,0.00
2014-7-23,91,85,77,80,74,68,89,72,63,30.00,29.74,32,6,32,0.00
2014-7-24,85,80,69,72,67,60,97,66,55,29.93,29.82,16,8,16,0.00
2014-7-25,81,76,62,65,62,49,91,63,52,30.05,29.93,8,0,8,0.00
2014-7-26,85,80,68,69,66,63,92,63,54,29.97,29.81,7,0,8,0.00
2014-7-27,85,80,70,77,71,57,98,74,63,29.84,29.57,12,2,14,0.00
2014-7-28,80,76,72,73,67,62,88,73,57,29.82,29.51,21,4,21,0.00
2014-7-29,74,70,61,63,58,52,76,65,54,29.99,29.79,12,2,13,0.00
2014-7-30,77,72,58,62,59,55,95,65,57,30.05,29.97,9,1,11,0.00
2014-7-31,84,76,64,70,64,62,96,68,56,30.07,30.00,9,0,11,0.00
2014-8-1,76,75,69,70,67,66,97,78,72,30.14,30.06,10,0,10,0.00
2014-8-2,80,75,67,70,68,63,88,78,69,30.12,30.01,8,0,9,0.00
2014-8-3,83,65,0,72,60,0,96,71,61,30.04,29.93,8,0,10,0.28
2014-8-4,83,75,65,70,68,64,100,80,57,30.08,30.00,10,1,10,0.00
2014-8-5,86,81,66,72,68,56,99,66,44,30.04,29.89,7,0,7,0.00
2014-8-6,84,80,68,70,69,54,99,68,60,29.93,29.85,8,0,9,0.00
2014-8-7,81,78,66,69,65,56,99,65,48,30.02,29.90,12,1,12,0.00
2014-8-8,81,78,64,66,64,50,98,65,55,30.11,30.01,7,0,7,0.00
2014-8-9,83,78,67,71,68,64,90,70,62,30.08,30.00,7,0,7,0.00
2014-8-10,84,80,67,70,69,66,99,69,61,30.10,30.01,8,0,8,0.00
2014-8-11,82,77,69,69,66,62,87,71,59,30.06,29.95,13,1,13,0.00
2014-8-12,77,73,70,73,68,62,97,85,77,29.95,29.70,9,0,11,0.00
2014-8-13,78,74,68,72,66,60,98,77,61,29.89,29.72,17,4,19,0.00
2014-8-14,81,74,60,65,59,46,96,59,45,29.91,29.81,14,5,15,0.00
2014-8-15,78,58,0,58,44,0,88,43,44,29.99,29.90,11,1,11,0.00
2014-8-16,80,75,56,62,59,55,97,58,48,30.00,29.88,9,1,10,0.00
2014-8-17,86,80,66,71,65,49,90,61,54,29.90,29.82,13,1,14,0.00
2014-8-18,82,79,66,71,67,50,95,67,55,29.90,29.75,9,1,9,0.00
2014-8-19,84,79,69,74,71,60,96,77,70,29.87,29.77,8,0,8,0.00
2014-8-20,83,79,74,74,72,71,95,79,73,29.97,29.84,11,2,13,0.00
2014-8-21,85,80,71,76,72,63,99,79,68,30.01,29.92,9,2,11,0.00
2014-8-22,80,78,70,74,72,69,99,83,79,29.96,29.89,7,0,7,0.00
2014-8-23,78,75,68,72,70,62,96,85,80,30.06,29.92,10,0,10,0.00
2014-8-24,78,73,65,68,66,62,98,80,61,30.12,30.06,8,0,8,0.00
2014-8-25,80,75,60,69,65,60,99,71,55,30.16,30.09,6,0,8,0.00
2014-8-26,83,78,59,69,65,46,99,66,55,30.16,30.04,6,0,7,0.00
2014-8-27,87,82,62,75,70,47,99,69,58,30.06,29.86,6,0,6,0.00
2014-8-28,85,80,67,75,66,57,89,63,44,30.06,29.88,15,2,17,0.00
2014-8-29,78,75,56,63,60,56,98,59,50,30.18,30.06,7,1,7,0.00
2014-8-30,81,78,69,74,68,55,88,73,61,30.16,30.04,11,1,13,0.00
2014-8-31,87,81,74,78,74,67,99,82,72,30.06,29.92,12,1,14,0.31
2014-9-1,90,83,72,78,74,72,99,76,62,29.99,29.87,9,0,12,0.00
2014-9-2,88,83,0,78,74,0,82,71,63,29.92,29.77,9,3,14,0.00
2014-9-3,83,62,0,76,55,0,99,57,61,30.08,29.86,6,1,6,0.00
2014-9-4,86,82,68,76,72,68,98,73,68,30.12,30.02,9,1,11,0.00
2014-9-5,88,84,72,79,76,70,99,79,70,30.10,29.95,6,0,7,0.29
2014-9-6,88,82,72,79,77,68,99,83,67,29.97,29.80,8,3,11,0.08
2014-9-7,81,75,61,75,64,54,96,71,47,30.14,29.96,12,4,13,0.00
2014-9-8,76,72,57,67,63,56,99,75,68,30.22,30.13,12,3,12,0.00
2014-9-9,75,73,70,68,66,60,87,77,71,30.18,30.05,7,4,7,0.00
2014-9-10,78,74,69,71,68,66,91,82,75,30.08,29.91,11,1,11,0.00
2014-9-11,84,63,0,75,57,0,93,63,72,29.99,29.82,12,2,14,0.00
2014-9-12,79,72,58,71,63,56,94,72,62,30.12,29.97,10,3,12,0.00
2014-9-13,72,69,62,62,59,58,97,71,65,30.22,30.06,9,1,11,0.00
2014-9-14,67,62,46,58,54,46,98,76,58,30.31,30.16,8,1,9,0.04
2014-9-15,71,58,45,60,53,44,99,84,56,30.23,29.99,7,0,8,0.00
2014-9-16,74,64,54,60,56,51,98,78,54,30.02,29.96,13,2,19,0.00
2014-9-17,73,59,46,58,52,45,99,80,51,30.05,29.92,6,0,7,0.00
2014-9-18,75,62,51,60,54,50,97,78,48,30.08,29.92,7,0,9,0.00
2014-9-19,72,61,48,60,55,47,98,83,65,30.24,30.08,11,0,15,0.00
2014-9-20,79,69,62,66,62,60,96,78,57,30.23,29.98,10,1,13,0.00
2014-9-21,83,70,56,70,63,53,99,80,56,30.01,29.58,14,1,16,0.00
2014-9-22,70,62,49,54,50,45,86,67,55,30.22,29.73,17,4,21,0.00
2014-9-23,68,55,41,54,47,39,96,77,53,30.36,30.21,5,0,7,0.00
2014-9-24,67,56,43,59,52,42,98,88,73,30.47,30.36,7,0,10,0.11
2014-9-25,69,62,57,64,60,56,99,93,83,30.37,30.21,11,2,11,0.38
2014-9-26,76,64,54,62,57,52,99,82,54,30.25,30.15,10,1,12,0.00
2014-9-27,79,62,48,64,56,47,100,83,55,30.25,30.14,7,0,8,0.00
2014-9-28,77,63,49,64,58,48,99,85,55,30.19,30.00,5,0,5,0.00
2014-9-29,74,66,59,67,62,58,99,90,73,30.01,29.87,5,0,5,0.00
2014-9-30,75,66,57,67,62,56,100,90,74,29.91,29.79,9,0,10,0.28
2014-10-1,71,63,58,64,61,56,100,92,78,30.03,29.90,5,0,6,0.02
2014-10-2,75,63,55,65,60,55,100,89,63,30.10,30.02,5,0,8,0.00
2014-10-3,68,64,60,65,62,58,98,92,87,30.06,29.64,19,1,19,0.21
2014-10-4,66,58,40,66,49,33,99,75,46,29.79,29.57,18,2,23,0.05
2014-10-5,61,48,37,43,39,34,92,72,46,29.93,29.78,12,1,14,0.00
2014-10-6,72,56,38,54,47,37,98,75,53,29.96,29.83,15,2,22,0.00
2014-10-7,65,60,55,59,56,53,96,85,69,29.98,29.80,10,1,12,0.11
2014-10-8,73,61,52,59,52,45,99,75,46,29.98,29.80,19,1,19,0.00
2014-10-9,71,59,44,52,46,40,91,66,42,30.09,29.97,15,1,16,0.00
2014-10-10,58,56,53,54,52,49,96,87,75,30.09,30.02,5,0,5,0.01
2014-10-11,59,52,49,54,51,47,99,94,79,30.14,29.97,9,1,10,0.54
2014-10-12,61,53,44,51,48,44,99,85,61,30.27,30.14,7,0,8,0.00
2014-10-13,63,59,54,62,57,51,98,94,90,30.24,30.13,10,0,11,0.00
2014-10-14,77,71,63,70,68,62,99,89,77,30.13,29.85,19,3,19,0.00
2014-10-15,72,65,57,69,64,56,99,96,88,29.86,29.69,18,1,18,1.97
2014-10-16,67,59,52,60,56,52,100,91,72,29.72,29.66,6,0,6,0.01
2014-10-17,72,61,51,57,54,50,97,80,56,29.78,29.61,10,1,14,0.00
2014-10-18,62,57,50,55,49,43,90,75,60,29.85,29.57,17,2,20,0.00
2014-10-19,57,50,41,44,38,32,86,64,46,30.07,29.84,22,6,23,0.00